Aviation Digital Data Service (ADDS)

Output produced by METARs form (0238 UTC 22 April 2019)
found at http://www.aviationweather.gov/metar/data/
 
Forecast for: KDTW (DETROIT/WAYNE , MI, US)
Text: KDTW 212341Z 2200/2306 17009KT P6SM BKN100
Forecast period: 0000 to 0300 UTC 22 April 2019
Forecast type: FROM: standard forecast or significant change
Winds: from the S (170 degrees) at 10 MPH (9 knots; 4.6 m/s)
Visibility: 6 or more miles 10+ km)
Ceiling: 10000 feet AGL
Clouds: broken clouds at 10000 feet AGL
Weather: no significant weather forecast for this period
Text: FM220300 VRB04KT P6SM BKN100
Forecast period: 0300 to 1400 UTC 22 April 2019
Forecast type: FROM: standard forecast or significant change
Winds: variable direction winds at 5 MPH (4 knots; 2.1 m/s)
Visibility: 6 or more miles 10+ km)
Ceiling: 10000 feet AGL
Clouds: broken clouds at 10000 feet AGL
Weather: no significant weather forecast for this period
Text: FM221400 17010KT P6SM BKN120
Forecast period: 1400 UTC 22 April 2019 to 0600 UTC 23 April 2019
Forecast type: FROM: standard forecast or significant change
Winds: from the S (170 degrees) at 12 MPH (10 knots; 5.1 m/s)
Visibility: 6 or more miles 10+ km)
Ceiling: 12000 feet AGL
Clouds: broken clouds at 12000 feet AGL
Weather: no significant weather forecast for this period